3 – eServices

Baggage tracing
Cargo tracing
Weather
  • METAR

    EFMA 270820Z 30011KT 270V350 9999 OVC029 13/06 Q1002

    EFTU 270820Z AUTO 27012KT 9999 SCT017/// BKN020/// OVC028/// 13/09 Q1000

    EFHK 270820Z 26011KT 9999 SCT023 BKN060 14/09 Q0999 NOSIG

    ESSA 270820Z 28011KT 240V310 9999 SCT039 14/05 Q1004 NOSIG

    ESSB 270820Z 28014KT 250V310 CAVOK 14/04 Q1004

  • TAF n/a

Flightradar24